Startpagina
METAR-TAF:

METAR-TAF

Vliegvelden :

Beja, Portugal

breedte: 38-04-40N, lengte: 007-55-57W, hoogte: 193 m

Actueel weer

Dit bericht is 26 minuten geleden gemaakt, om 11:00 UTC
Wind 4 kt uit het westen, variërend tussen het zuiden en het noordnoordwesten
Temperatuur 29°C
Vochtigheid 45%
Druk 1016 hPa
Zicht 10 km of meer
geen wolken onder 1500 m en geen cumulonimbus

METAR: LPBJ 231100Z 27004KT 190V330 CAVOK 29/16 Q1016

Tijdstip: 12:26 (11:26 UTC)

Verwachting

Dit bericht is 6 uur en het 18 minuten geleden gemaakt, om 05:08 UTC
Verwachting geldig van 23 om 06 UTC tot 24 om 06 UTC
Wind 5 kt uit het westen
Zicht 10 km of meer
geen wolken onder 1500 m en geen cumulonimbus
Wijzigt naar
van 23 om 15 UTC tot 23 om 17 UTC
Wind 10 kt uit het noordnoordwesten
Tijdelijke
van 23 om 17 UTC tot 23 om 19 UTC
Wind 12 kt uit het noorden met uitschieters tot 22 kt

TAF: LPBJ 230508Z 2306/2406 28005KT CAVOK BECMG 2315/2317 34010KT TEMPO 2317/2319 35012G22KT

Waarnemingen en weersverwachtingen van meer dan 4000 vliegvelden (METAR en TAF).

De beschikbare stations zijn de gele en rode punten op de kaart.

Ga met uw muis naar het station om de naam te zien.

Klik dan om waarnemingen en weersverwachtingen te zien.

kaart wijzigen: klik op de groene knoppen met een zwart kruis om in te zoomen, op de groene knop met een streepje om uit te zoomen of op de groene pijlen voor aangrenzende kaarten.


METAR-TAF: